Time;durP1;ratioP1;P1;durP2;ratioP2;P2;SDS_P1;SDS_P2;PMS_P1;PMS_P2;Temp;Humidity;BMP_temperature;BMP_pressure;BME280_temperature;BME280_humidity;BME280_pressure;Samples;Min_cycle;Max_cycle;Signal;HPM_P1;HPM_P2
2023/08/29 00:00:58;;;;;;;1.77;1.33;;;19.80;72.70;;;;;;5051766;28;20120;-36
2023/08/29 00:03:27;;;;;;;1.45;1.10;;;20.70;84.90;;;;;;5050307;28;20132;-35
2023/08/29 00:06:00;;;;;;;1.40;1.20;;;20.80;67.10;;;;;;5050240;28;20100;-35
2023/08/29 00:08:27;;;;;;;2.00;1.40;;;20.50;84.10;;;;;;5050812;28;20081;-40
2023/08/29 00:10:56;;;;;;;1.48;1.33;;;20.80;67.10;;;;;;5050542;28;20624;-36
2023/08/29 00:13:23;;;;;;;1.90;1.50;;;;;;;;;;5050088;28;20148;-35
2023/08/29 00:15:49;;;;;;;1.73;1.30;;;21.20;84.80;;;;;;5050845;28;20132;-37
2023/08/29 00:18:19;;;;;;;1.70;1.30;;;20.70;67.10;;;;;;5051286;28;20478;-34
2023/08/29 00:20:46;;;;;;;1.60;1.30;;;;;;;;;;5050465;28;20563;-38
2023/08/29 00:23:13;;;;;;;2.28;1.40;;;;;;;;;;5050135;28;20045;-36
2023/08/29 00:25:40;;;;;;;1.50;1.35;;;20.80;70.90;;;;;;5050366;28;20135;-36
2023/08/29 00:28:07;;;;;;;1.50;1.33;;;21.00;84.40;;;;;;5050730;28;20128;-37
2023/08/29 00:30:34;;;;;;;1.50;1.20;;;20.70;84.70;;;;;;5054317;28;20767;-39
2023/08/29 00:33:01;;;;;;;1.67;1.30;;;;;;;;;;5054924;28;20402;-36
2023/08/29 00:35:29;;;;;;;1.85;1.30;;;21.40;84.60;;;;;;5059201;28;20072;-38
2023/08/29 00:37:56;;;;;;;1.58;1.30;;;20.70;83.90;;;;;;5073917;28;20131;-38
2023/08/29 00:40:23;;;;;;;1.52;1.38;;;;;;;;;;5073976;28;20128;-36
2023/08/29 00:42:49;;;;;;;2.08;1.48;;;20.70;77.40;;;;;;5073927;28;20119;-35
2023/08/29 00:45:16;;;;;;;1.50;1.20;;;;;;;;;;5074138;28;20139;-36
2023/08/29 00:47:44;;;;;;;1.67;1.33;;;;;;;;;;5074365;28;20123;-34
2023/08/29 00:50:11;;;;;;;1.45;1.33;;;;;;;;;;5061989;28;20148;-37
2023/08/29 00:52:39;;;;;;;1.50;1.40;;;20.70;67.10;;;;;;5053694;28;20128;-33
2023/08/29 00:55:06;;;;;;;2.45;1.38;;;20.70;67.10;;;;;;5053892;28;20581;-32
2023/08/29 00:57:33;;;;;;;1.73;1.33;;;;;;;;;;5053719;28;20127;-37
2023/08/29 01:00:00;;;;;;;1.40;1.27;;;;;;;;;;5053884;28;20132;-35
2023/08/29 01:02:27;;;;;;;1.40;1.27;;;20.40;84.00;;;;;;5053593;28;20124;-38
2023/08/29 01:04:54;;;;;;;2.05;1.40;;;;;;;;;;5053719;28;20147;-35
2023/08/29 01:07:21;;;;;;;1.95;1.38;;;20.70;84.00;;;;;;5055048;28;20143;-36
2023/08/29 01:09:49;;;;;;;1.95;1.25;;;21.00;84.80;;;;;;5053718;28;20128;-30
2023/08/29 01:12:16;;;;;;;1.45;1.20;;;;;;;;;;5053521;28;20140;-30
2023/08/29 01:14:46;;;;;;;1.98;1.45;;;19.80;82.20;;;;;;5053745;28;20110;-30
2023/08/29 01:17:16;;;;;;;1.70;1.30;;;20.70;84.30;;;;;;5054935;28;20127;-30
2023/08/29 01:19:43;;;;;;;1.42;1.23;;;;;;;;;;5053644;28;20080;-32
2023/08/29 01:22:18;;;;;;;1.52;1.25;;;21.50;84.60;;;;;;5053466;28;20136;-30
2023/08/29 01:24:46;;;;;;;2.30;1.30;;;;;;;;;;5053466;28;20136;-31
2023/08/29 01:27:14;;;;;;;1.38;1.20;;;20.60;67.00;;;;;;5053342;28;20132;-35
2023/08/29 01:29:41;;;;;;;1.30;1.20;;;;;;;;;;5053269;28;20145;-35
2023/08/29 01:32:07;;;;;;;1.70;1.40;;;20.70;84.30;;;;;;5067899;28;20076;-30
2023/08/29 01:34:34;;;;;;;1.98;1.45;;;20.80;84.20;;;;;;5073348;28;20040;-30
2023/08/29 01:37:01;;;;;;;1.50;1.30;;;;;;;;;;5072801;28;20128;-34
2023/08/29 01:39:28;;;;;;;2.95;1.20;;;20.90;84.10;;;;;;5072963;28;20062;-39
2023/08/29 01:41:55;;;;;;;1.27;1.17;;;;;;;;;;5072277;28;20135;-33
2023/08/29 01:44:23;;;;;;;1.23;1.00;;;21.70;71.30;;;;;;5072814;28;20128;-36
2023/08/29 01:46:50;;;;;;;1.27;1.10;;;;;;;;;;5072556;28;20124;-35
2023/08/29 01:49:17;;;;;;;1.48;1.20;;;;;;;;;;5052782;28;20135;-35
2023/08/29 01:51:44;;;;;;;1.40;1.30;;;20.40;84.00;;;;;;5053070;28;20136;-39
2023/08/29 01:54:11;;;;;;;1.50;1.30;;;20.50;84.30;;;;;;5052739;28;20186;-39
2023/08/29 01:56:39;;;;;;;1.42;1.20;;;;;;;;;;5052895;28;20136;-35
2023/08/29 01:59:06;;;;;;;1.20;1.10;;;20.80;79.20;;;;;;5052856;28;20064;-37
2023/08/29 02:01:34;;;;;;;1.75;1.13;;;20.40;84.20;;;;;;5052791;28;20051;-39
2023/08/29 02:04:02;;;;;;;2.72;1.30;;;;;;;;;;5053463;28;20119;-39
2023/08/29 02:06:29;;;;;;;1.63;1.20;;;20.30;72.00;;;;;;5059540;28;20045;-37
2023/08/29 02:08:56;;;;;;;1.20;0.95;;;;;;;;;;5052472;28;20144;-34
2023/08/29 02:11:23;;;;;;;1.38;1.10;;;20.60;84.30;;;;;;5052549;28;20144;-35
2023/08/29 02:13:50;;;;;;;1.48;1.17;;;20.60;84.30;;;;;;5051968;28;20123;-38
2023/08/29 02:16:16;;;;;;;1.40;1.10;;;20.40;76.90;;;;;;5052630;28;20127;-36
2023/08/29 02:18:44;;;;;;;1.50;1.05;;;20.50;67.00;;;;;;5052467;28;20136;-39
2023/08/29 02:21:11;;;;;;;1.38;1.20;;;20.10;83.80;;;;;;5064974;28;20131;-36
2023/08/29 02:23:38;;;;;;;1.23;1.10;;;20.90;84.20;;;;;;5054383;28;20549;-39
2023/08/29 02:26:05;;;;;;;1.20;1.10;;;20.30;68.90;;;;;;5052432;28;20127;-35
2023/08/29 02:28:34;;;;;;;2.45;1.10;;;20.30;84.40;;;;;;5061702;28;20136;-38
2023/08/29 02:31:03;;;;;;;1.42;1.10;;;20.50;67.00;;;;;;5072417;28;20049;-32
2023/08/29 02:33:30;;;;;;;1.52;1.10;;;20.20;83.90;;;;;;5071925;28;20045;-37
2023/08/29 02:35:58;;;;;;;1.77;1.10;;;21.40;69.80;;;;;;5064087;28;20132;-36
2023/08/29 02:38:25;;;;;;;1.67;1.20;;;20.50;72.60;;;;;;5062637;28;20120;-35
2023/08/29 02:40:52;;;;;;;1.75;1.23;;;20.20;83.80;;;;;;5060443;28;20131;-39
2023/08/29 02:43:19;;;;;;;1.20;1.10;;;;;;;;;;5061340;28;20127;-37
2023/08/29 02:45:45;;;;;;;1.02;0.95;;;20.00;81.70;;;;;;5060003;28;20124;-36
2023/08/29 02:48:12;;;;;;;1.27;1.17;;;;;;;;;;5060578;28;20131;-36
2023/08/29 02:50:39;;;;;;;1.15;1.05;;;;;;;;;;5061369;28;20127;-36
2023/08/29 02:53:07;;;;;;;1.00;0.90;;;20.40;66.60;;;;;;5057847;28;20037;-37
2023/08/29 02:55:34;;;;;;;1.25;0.98;;;19.20;77.70;;;;;;5060584;28;20057;-39
2023/08/29 02:58:01;;;;;;;1.23;1.10;;;;;;;;;;5061328;28;20183;-35
2023/08/29 03:00:29;;;;;;;1.60;1.20;;;;;;;;;;5062197;28;20422;-34
2023/08/29 03:02:56;;;;;;;1.30;1.20;;;20.20;72.30;;;;;;5060202;28;20075;-35
2023/08/29 03:05:24;;;;;;;1.20;1.10;;;;;;;;;;5055204;28;20107;-35
2023/08/29 03:07:51;;;;;;;1.42;1.20;;;19.90;83.30;;;;;;5051407;28;20582;-38
2023/08/29 03:10:19;;;;;;;0.93;0.90;;;20.50;84.00;;;;;;5052736;28;20084;-37
2023/08/29 03:12:46;;;;;;;1.30;1.13;;;;;;;;;;5051270;28;20133;-35
2023/08/29 03:15:13;;;;;;;1.20;1.10;;;;;;;;;;5051551;28;20079;-37
2023/08/29 03:17:40;;;;;;;1.10;1.00;;;;;;;;;;5071082;28;20131;-35
2023/08/29 03:20:08;;;;;;;1.33;1.20;;;21.00;84.00;;;;;;5071104;28;20132;-39
2023/08/29 03:22:35;;;;;;;1.02;0.90;;;;;;;;;;5071085;28;20048;-36
2023/08/29 03:25:03;;;;;;;1.20;1.10;;;;;;;;;;5070797;28;20132;-33
2023/08/29 03:27:31;;;;;;;1.00;0.90;;;21.30;84.50;;;;;;5052273;28;20131;-35
2023/08/29 03:29:58;;;;;;;1.60;0.93;;;;;;;;;;5051070;28;20148;-35
2023/08/29 03:32:25;;;;;;;1.10;1.00;;;;;;;;;;5051090;28;20132;-32
2023/08/29 03:34:52;;;;;;;1.23;1.05;;;20.60;84.20;;;;;;5051241;28;20132;-37
2023/08/29 03:37:19;;;;;;;1.10;0.90;;;19.90;74.10;;;;;;5062685;28;20056;-37
2023/08/29 03:39:46;;;;;;;0.98;0.88;;;;;;;;;;5071004;28;20132;-35
2023/08/29 03:42:13;;;;;;;1.20;1.10;;;21.10;77.90;;;;;;5067343;28;20120;-35
2023/08/29 03:44:41;;;;;;;1.13;1.00;;;20.60;80.70;;;;;;5050461;28;20127;-36
2023/08/29 03:47:08;;;;;;;1.33;1.05;;;;;;;;;;5050992;28;20143;-36
2023/08/29 03:49:35;;;;;;;1.15;1.05;;;;;;;;;;5050780;28;20570;-35
2023/08/29 03:52:03;;;;;;;1.15;1.05;;;;;;;;;;5050513;28;20581;-36
2023/08/29 03:54:29;;;;;;;1.17;0.90;;;20.40;74.10;;;;;;5050606;28;20048;-35
2023/08/29 03:56:56;;;;;;;1.08;0.98;;;19.70;75.00;;;;;;5050436;28;20521;-40
2023/08/29 03:59:23;;;;;;;1.10;1.00;;;20.10;83.70;;;;;;5051935;28;20140;-38
2023/08/29 04:01:51;;;;;;;0.90;0.90;;;20.20;66.30;;;;;;5050735;28;20128;-35
2023/08/29 04:04:18;;;;;;;1.55;0.98;;;;;;;;;;5054574;28;20053;-39
2023/08/29 04:06:45;;;;;;;0.80;0.80;;;20.20;83.80;;;;;;5057543;28;20132;-36
2023/08/29 04:09:12;;;;;;;0.80;0.80;;;;;;;;;;5057206;28;20131;-33
2023/08/29 04:11:40;;;;;;;1.35;0.85;;;;;;;;;;5057299;28;20048;-35
2023/08/29 04:14:07;;;;;;;1.23;0.98;;;;;;;;;;5057230;28;20132;-37
2023/08/29 04:16:34;;;;;;;1.17;1.00;;;;;;;;;;5066503;28;20059;-33
2023/08/29 04:19:02;;;;;;;0.88;0.82;;;20.50;76.40;;;;;;5077160;28;20131;-36
2023/08/29 04:21:29;;;;;;;1.42;0.90;;;19.50;83.10;;;;;;5076940;28;20154;-35
2023/08/29 04:23:55;;;;;;;1.02;0.90;;;20.40;83.60;;;;;;5076814;28;20517;-36
2023/08/29 04:26:22;;;;;;;0.90;0.90;;;;;;;;;;5076985;28;20135;-33
2023/08/29 04:28:49;;;;;;;0.80;0.80;;;;;;;;;;5077048;28;20052;-37
2023/08/29 04:31:19;;;;;;;1.00;0.90;;;;;;;;;;5076661;28;20152;-36
2023/08/29 04:33:46;;;;;;;0.80;0.80;;;;;;;;;;5056965;28;20128;-40
2023/08/29 04:36:17;;;;;;;1.77;0.80;;;20.10;83.70;;;;;;5060339;28;20124;-38
2023/08/29 04:38:45;;;;;;;1.05;0.98;;;;;;;;;;5077153;28;20059;-36
2023/08/29 04:41:11;;;;;;;0.80;0.80;;;19.50;83.80;;;;;;5076786;28;20101;-37
2023/08/29 04:43:39;;;;;;;0.85;0.80;;;;;;;;;;5076825;28;20127;-34
2023/08/29 04:46:07;;;;;;;0.90;0.90;;;19.80;73.00;;;;;;5077228;28;20048;-38
2023/08/29 04:48:34;;;;;;;2.90;0.90;;;20.10;83.60;;;;;;5071303;28;20469;-39
2023/08/29 04:51:01;;;;;;;1.88;0.90;;;;;;;;;;5063656;28;20171;-38
2023/08/29 04:53:30;;;;;;;0.88;0.88;;;20.10;66.40;;;;;;5064125;28;20143;-39
2023/08/29 04:56:00;;;;;;;0.80;0.80;;;20.60;84.30;;;;;;5076931;28;20083;-38
2023/08/29 04:58:27;;;;;;;0.80;0.80;;;;;;;;;;5077245;28;20052;-34
2023/08/29 05:00:54;;;;;;;0.80;0.80;;;;;;;;;;5076834;28;20468;-34
2023/08/29 05:03:22;;;;;;;1.15;1.00;;;;;;;;;;5076424;28;20051;-34
2023/08/29 05:05:49;;;;;;;1.20;0.90;;;19.80;68.40;;;;;;5074968;28;20052;-36
2023/08/29 05:08:16;;;;;;;1.10;1.00;;;;;;;;;;5077030;28;20075;-34
2023/08/29 05:10:44;;;;;;;1.80;0.98;;;19.90;84.00;;;;;;5076967;28;20131;-37
2023/08/29 05:13:10;;;;;;;0.80;0.80;;;20.40;84.20;;;;;;5076406;28;20151;-36
2023/08/29 05:15:37;;;;;;;0.60;0.60;;;;;;;;;;5073975;28;20127;-38
2023/08/29 05:18:05;;;;;;;0.80;0.80;;;20.90;84.40;;;;;;5073282;28;20157;-37
2023/08/29 05:20:32;;;;;;;0.90;0.90;;;;;;;;;;5067594;28;20554;-33
2023/08/29 05:22:59;;;;;;;0.88;0.80;;;20.50;84.50;;;;;;5053313;28;20048;-39
2023/08/29 05:25:26;;;;;;;0.70;0.70;;;;;;;;;;5053554;28;20049;-33
2023/08/29 05:27:54;;;;;;;0.98;0.90;;;20.30;81.00;;;;;;5053324;28;20128;-40
2023/08/29 05:30:21;;;;;;;1.23;0.90;;;19.70;83.60;;;;;;5053271;28;20132;-39
2023/08/29 05:32:47;;;;;;;1.23;0.98;;;19.10;83.60;;;;;;5053055;28;20132;-39
2023/08/29 05:35:14;;;;;;;0.73;0.73;;;;;;;;;;5052987;28;20132;-37
2023/08/29 05:37:41;;;;;;;0.82;0.80;;;19.90;84.00;;;;;;5054331;28;20136;-39
2023/08/29 05:40:09;;;;;;;1.23;0.88;;;19.40;76.30;;;;;;5069880;28;20140;-37
2023/08/29 05:42:36;;;;;;;0.70;0.70;;;20.40;84.00;;;;;;5072914;28;20059;-39
2023/08/29 05:45:05;;;;;;;1.15;0.90;;;20.00;66.40;;;;;;5073148;28;20132;-33
2023/08/29 05:47:32;;;;;;;1.30;1.00;;;;;;;;;;5072908;28;20056;-30
2023/08/29 05:49:59;;;;;;;1.00;0.90;;;19.20;72.80;;;;;;5072847;28;20139;-31
2023/08/29 05:52:25;;;;;;;1.10;1.00;;;20.30;84.30;;;;;;5072155;28;20454;-30
2023/08/29 05:54:52;;;;;;;1.60;0.98;;;20.20;84.20;;;;;;5053528;28;20127;-30
2023/08/29 05:57:20;;;;;;;0.70;0.70;;;;;;;;;;5052548;28;20602;-31
2023/08/29 05:59:46;;;;;;;1.15;0.90;;;19.70;77.80;;;;;;5056707;28;20044;-31
2023/08/29 06:02:14;;;;;;;0.90;0.80;;;20.30;67.30;;;;;;5062987;28;20124;-32
2023/08/29 06:04:41;;;;;;;1.75;0.95;;;;;;;;;;5062111;28;20127;-34
2023/08/29 06:07:09;;;;;;;1.45;0.70;;;20.00;84.00;;;;;;5062263;28;20128;-30
2023/08/29 06:09:36;;;;;;;0.82;0.82;;;20.20;84.30;;;;;;5056818;28;20068;-31
2023/08/29 06:12:03;;;;;;;1.13;1.02;;;;;;;;;;5052693;28;20131;-31
2023/08/29 06:14:30;;;;;;;0.90;0.90;;;;;;;;;;5069949;28;20053;-32
2023/08/29 06:16:57;;;;;;;1.00;0.90;;;18.90;83.70;;;;;;5072801;28;20049;-30
2023/08/29 06:19:25;;;;;;;0.90;0.90;;;19.80;66.80;;;;;;5072533;28;20468;-33
2023/08/29 06:21:52;;;;;;;0.93;0.80;;;20.10;73.10;;;;;;5072534;28;20083;-33
2023/08/29 06:24:18;;;;;;;0.88;0.88;;;19.70;84.00;;;;;;5071903;28;20597;-30
2023/08/29 06:26:45;;;;;;;0.88;0.85;;;;;;;;;;5057995;28;20123;-30
2023/08/29 06:29:12;;;;;;;1.05;0.90;;;;;;;;;;5052446;28;20133;-30
2023/08/29 06:31:41;;;;;;;1.00;0.75;;;19.30;83.90;;;;;;5052444;28;20135;-30
2023/08/29 06:34:07;;;;;;;1.35;0.80;;;19.70;74.80;;;;;;5052197;28;20059;-31
2023/08/29 06:36:35;;;;;;;1.23;0.90;;;19.30;66.10;;;;;;5057588;28;20139;-34
2023/08/29 06:39:03;;;;;;;1.17;0.77;;;20.00;66.50;;;;;;5072320;28;20123;-33
2023/08/29 06:41:30;;;;;;;2.50;0.93;;;;;;;;;;5071331;28;20596;-32
2023/08/29 06:43:57;;;;;;;1.00;0.75;;;19.80;71.60;;;;;;5052740;28;20106;-32
2023/08/29 06:46:23;;;;;;;1.10;1.00;;;19.40;83.70;;;;;;5051978;28;20561;-31
2023/08/29 06:48:51;;;;;;;1.17;0.98;;;;;;;;;;5051957;28;20060;-33
2023/08/29 06:51:18;;;;;;;1.35;0.95;;;;;;;;;;5051821;28;20131;-31
2023/08/29 06:53:46;;;;;;;1.73;1.00;;;20.00;66.50;;;;;;5051478;28;20554;-35
2023/08/29 06:56:13;;;;;;;1.10;1.00;;;;;;;;;;5053877;28;20144;-30
2023/08/29 06:58:39;;;;;;;2.53;0.90;;;20.20;71.60;;;;;;5070461;28;20128;-30
2023/08/29 07:01:06;;;;;;;1.70;1.52;;;19.90;84.00;;;;;;5072225;28;20480;-31
2023/08/29 07:03:33;;;;;;;0.93;0.88;;;;;;;;;;5072384;28;20127;-31
2023/08/29 07:06:00;;;;;;;1.52;1.20;;;19.70;84.40;;;;;;5072407;28;20135;-30
2023/08/29 07:08:27;;;;;;;2.03;1.15;;;19.50;84.30;;;;;;5063563;28;20677;-31
2023/08/29 07:10:55;;;;;;;1.35;1.10;;;19.70;68.20;;;;;;5064960;28;20132;-35
2023/08/29 07:13:22;;;;;;;1.50;1.30;;;19.60;70.60;;;;;;5063838;28;20557;-32
2023/08/29 07:15:49;;;;;;;3.25;1.30;;;20.40;83.80;;;;;;5068940;28;20048;-31
2023/08/29 07:18:16;;;;;;;2.10;1.20;;;;;;;;;;5070186;28;20136;-33
2023/08/29 07:20:43;;;;;;;2.17;1.20;;;20.30;84.70;;;;;;5071993;28;20135;-31
2023/08/29 07:23:10;;;;;;;2.53;1.30;;;;;;;;;;5072036;28;20390;-36
2023/08/29 07:25:38;;;;;;;1.98;1.13;;;19.60;84.30;;;;;;5072103;28;20127;-31
2023/08/29 07:28:07;;;;;;;2.33;1.20;;;20.50;84.60;;;;;;5072189;28;20203;-32
2023/08/29 07:30:34;;;;;;;3.35;1.50;;;19.50;69.20;;;;;;5072039;28;20131;-33
2023/08/29 07:33:00;;;;;;;4.45;1.30;;;19.20;83.90;;;;;;5061334;28;20131;-30
2023/08/29 07:35:27;;;;;;;3.25;1.30;;;19.60;84.20;;;;;;5052162;28;20120;-31
2023/08/29 07:37:54;;;;;;;2.13;1.30;;;;;;;;;;5068352;28;20478;-33
2023/08/29 07:40:21;;;;;;;3.63;1.30;;;18.80;83.60;;;;;;5071939;28;20127;-31
2023/08/29 07:42:48;;;;;;;4.80;1.23;;;20.10;84.40;;;;;;5071760;28;20119;-30
2023/08/29 07:45:16;;;;;;;1.88;1.20;;;19.90;77.80;;;;;;5072051;28;20132;-33
2023/08/29 07:47:42;;;;;;;2.55;1.20;;;19.50;76.30;;;;;;5065996;28;20145;-34
2023/08/29 07:50:09;;;;;;;3.10;1.50;;;19.10;84.00;;;;;;5051707;28;20136;-30
2023/08/29 07:52:37;;;;;;;2.15;1.30;;;;;;;;;;5051593;28;20102;-30
2023/08/29 07:55:04;;;;;;;3.13;1.10;;;20.00;84.40;;;;;;5052032;28;20168;-32
2023/08/29 07:57:31;;;;;;;2.47;1.42;;;19.70;84.20;;;;;;5051932;28;20064;-31
2023/08/29 07:59:58;;;;;;;1.77;1.10;;;;;;;;;;5051666;28;20147;-32
2023/08/29 08:02:27;;;;;;;1.55;1.20;;;19.70;72.70;;;;;;5051441;28;20132;-32
2023/08/29 08:04:54;;;;;;;3.47;1.30;;;;;;;;;;5052945;28;20052;-31
2023/08/29 08:07:21;;;;;;;2.17;1.27;;;;;;;;;;5071947;28;20135;-30
2023/08/29 08:09:47;;;;;;;2.20;1.40;;;20.30;84.60;;;;;;5071984;28;20135;-31
2023/08/29 08:12:14;;;;;;;1.63;1.13;;;20.20;85.10;;;;;;5071487;28;20128;-30
2023/08/29 08:14:41;;;;;;;1.23;1.05;;;;;;;;;;5071655;28;20468;-32
2023/08/29 08:17:08;;;;;;;2.58;1.20;;;19.80;84.00;;;;;;5071681;28;20132;-31
2023/08/29 08:19:36;;;;;;;1.20;1.00;;;19.70;84.80;;;;;;5071633;28;20131;-31
2023/08/29 08:22:03;;;;;;;4.78;1.38;;;19.90;78.40;;;;;;5056251;28;20129;-30
2023/08/29 08:24:30;;;;;;;1.25;1.02;;;19.00;84.00;;;;;;5051363;28;20422;-30
2023/08/29 08:26:56;;;;;;;5.20;1.15;;;19.00;83.80;;;;;;5051731;28;20131;-32
2023/08/29 08:29:23;;;;;;;2.10;1.00;;;19.40;84.00;;;;;;5051580;28;20057;-32
2023/08/29 08:31:50;;;;;;;2.30;1.20;;;;;;;;;;5051401;28;20136;-31
2023/08/29 08:34:17;;;;;;;1.50;1.00;;;19.90;84.30;;;;;;5051038;28;20151;-31
2023/08/29 08:36:45;;;;;;;1.30;1.08;;;20.00;67.10;;;;;;5056179;28;20124;-31
2023/08/29 08:39:12;;;;;;;1.80;1.10;;;;;;;;;;5060695;28;20458;-33
2023/08/29 08:41:39;;;;;;;2.33;1.00;;;20.20;84.70;;;;;;5071258;28;20102;-31
2023/08/29 08:44:07;;;;;;;3.00;1.20;;;19.90;84.00;;;;;;5071224;28;20127;-30
2023/08/29 08:46:34;;;;;;;1.70;1.10;;;19.10;84.10;;;;;;5070923;28;20131;-32
2023/08/29 08:49:00;;;;;;;1.58;0.90;;;20.50;73.30;;;;;;5071636;28;20044;-32
2023/08/29 08:51:28;;;;;;;1.17;1.00;;;20.70;84.50;;;;;;5074720;28;20521;-31
2023/08/29 08:53:56;;;;;;;2.65;0.90;;;20.60;68.90;;;;;;5073414;28;20049;-31
2023/08/29 08:56:23;;;;;;;1.40;1.00;;;19.80;84.00;;;;;;5075142;28;20464;-31
2023/08/29 08:58:50;;;;;;;1.33;1.00;;;20.10;84.50;;;;;;5075084;28;20048;-30
2023/08/29 09:01:17;;;;;;;1.50;1.00;;;19.90;76.50;;;;;;5074726;28;20123;-31
2023/08/29 09:03:43;;;;;;;1.55;0.90;;;19.30;84.00;;;;;;5074857;28;20136;-32
2023/08/29 09:06:10;;;;;;;1.75;1.02;;;20.10;84.40;;;;;;5074949;28;20076;-30
2023/08/29 09:08:37;;;;;;;2.45;1.10;;;20.40;77.40;;;;;;5074921;28;20080;-32
2023/08/29 09:11:05;;;;;;;1.30;1.13;;;20.00;69.60;;;;;;5072265;28;20053;-30
2023/08/29 09:13:32;;;;;;;1.45;1.00;;;20.10;84.00;;;;;;5074640;28;20136;-31
2023/08/29 09:15:59;;;;;;;2.30;1.65;;;;;;;;;;5074650;28;20138;-34
2023/08/29 09:18:26;;;;;;;1.40;1.00;;;21.00;74.80;;;;;;5074808;28;20048;-31
2023/08/29 09:20:53;;;;;;;1.08;0.88;;;19.50;83.70;;;;;;5074564;28;20075;-30
2023/08/29 09:23:21;;;;;;;1.63;0.95;;;20.70;83.90;;;;;;5074308;28;20056;-30
2023/08/29 09:25:52;;;;;;;2.03;1.15;;;20.90;72.90;;;;;;5072928;28;20037;-31
2023/08/29 09:28:21;;;;;;;1.98;0.98;;;20.50;66.40;;;;;;5074608;28;20462;-35
2023/08/29 09:30:48;;;;;;;1.23;0.85;;;20.40;83.80;;;;;;5074664;28;20055;-30
2023/08/29 09:33:19;;;;;;;1.20;0.80;;;20.50;83.50;;;;;;5074225;28;20049;-31
2023/08/29 09:35:46;;;;;;;3.05;1.00;;;;;;;;;;5074366;28;20136;-32
2023/08/29 09:38:12;;;;;;;0.77;0.77;;;20.30;70.30;;;;;;5073797;28;20155;-32
2023/08/29 09:40:45;;;;;;;0.85;0.82;;;20.70;66.00;;;;;;5074177;28;20076;-30
2023/08/29 09:43:14;;;;;;;1.17;0.90;;;20.70;78.60;;;;;;5060744;28;20574;-30
2023/08/29 09:45:42;;;;;;;0.98;0.82;;;20.70;65.70;;;;;;5054012;28;20135;-31
2023/08/29 09:48:09;;;;;;;0.70;0.70;;;20.80;65.70;;;;;;5054266;28;20128;-32
2023/08/29 09:50:36;;;;;;;1.25;0.90;;;;;;;;;;5053978;28;20132;-32
2023/08/29 09:53:03;;;;;;;1.45;1.00;;;20.50;83.00;;;;;;5053863;28;20044;-30
2023/08/29 09:55:33;;;;;;;0.70;0.65;;;20.80;65.70;;;;;;5053704;28;20084;-32
2023/08/29 09:57:59;;;;;;;1.00;0.90;;;20.60;71.50;;;;;;5059047;28;20048;-31
2023/08/29 10:00:26;;;;;;;1.15;0.95;;;;;;;;;;5055004;28;20136;-34
2023/08/29 10:02:56;;;;;;;0.82;0.82;;;20.80;82.60;;;;;;5052887;28;20132;-32
2023/08/29 10:05:24;;;;;;;1.00;0.90;;;20.50;72.90;;;;;;5053595;28;20077;-32
2023/08/29 10:07:52;;;;;;;0.80;0.80;;;20.90;65.40;;;;;;5053723;28;20140;-34
2023/08/29 10:10:19;;;;;;;1.30;0.90;;;21.80;83.20;;;;;;5053588;28;20490;-36
2023/08/29 10:12:46;;;;;;;0.80;0.80;;;20.80;82.30;;;;;;5053329;28;20085;-36
2023/08/29 10:15:13;;;;;;;1.05;0.80;;;;;;;;;;5054973;28;20511;-34
2023/08/29 10:17:40;;;;;;;0.80;0.80;;;21.90;82.90;;;;;;5053673;28;20049;-39
2023/08/29 10:20:10;;;;;;;0.73;0.73;;;21.40;82.70;;;;;;5053568;28;20128;-37
2023/08/29 10:22:38;;;;;;;1.00;0.80;;;20.80;82.10;;;;;;5052817;28;20081;-38
2023/08/29 10:25:05;;;;;;;0.70;0.70;;;;;;;;;;5053575;28;20059;-33
2023/08/29 10:27:32;;;;;;;0.73;0.73;;;21.60;82.90;;;;;;5053290;28;20048;-37
2023/08/29 10:29:59;;;;;;;0.93;0.70;;;;;;;;;;5053402;28;20140;-36
2023/08/29 10:32:26;;;;;;;1.75;1.00;;;20.90;82.20;;;;;;5056128;28;20127;-39
2023/08/29 10:34:53;;;;;;;1.23;0.90;;;21.10;82.40;;;;;;5072602;28;20049;-36
2023/08/29 10:37:21;;;;;;;0.88;0.70;;;20.90;66.90;;;;;;5072934;28;20068;-36
2023/08/29 10:39:50;;;;;;;0.85;0.80;;;21.30;70.00;;;;;;5073165;28;20398;-37
2023/08/29 10:42:17;;;;;;;0.80;0.80;;;20.80;81.90;;;;;;5072135;28;20072;-34
2023/08/29 10:44:44;;;;;;;1.35;1.00;;;21.60;71.90;;;;;;5054590;28;20133;-31
2023/08/29 10:47:16;;;;;;;0.93;0.70;;;21.10;82.00;;;;;;5052808;28;20076;-32
2023/08/29 10:49:42;;;;;;;1.73;0.90;;;20.30;81.40;;;;;;5052850;28;20045;-32
2023/08/29 10:52:09;;;;;;;0.80;0.80;;;22.20;69.10;;;;;;5052980;28;20070;-30
2023/08/29 10:54:37;;;;;;;1.83;0.98;;;21.10;67.40;;;;;;5061011;28;20129;-31
2023/08/29 10:57:25;;;;;;;2.17;0.85;;;21.40;65.90;;;;;;5066285;28;20136;-31
2023/08/29 10:59:52;;;;;;;0.80;0.70;;;21.00;80.30;;;;;;5052754;28;20110;-31
2023/08/29 11:02:23;;;;;;;0.98;0.88;;;21.10;82.90;;;;;;5052432;28;20127;-30
2023/08/29 11:04:51;;;;;;;0.80;0.80;;;20.20;81.90;;;;;;5052784;28;20132;-31
2023/08/29 11:07:23;;;;;;;1.02;0.70;;;21.00;82.40;;;;;;5052521;28;20490;-30
2023/08/29 11:10:06;;;;;;;0.85;0.70;;;20.90;82.40;;;;;;5052668;28;20048;-31
2023/08/29 11:12:33;;;;;;;1.00;0.60;;;20.80;82.40;;;;;;5052537;28;20128;-30
2023/08/29 11:15:00;;;;;;;1.48;0.90;;;20.70;82.50;;;;;;5052105;28;20131;-30
2023/08/29 11:17:27;;;;;;;1.02;0.82;;;;;;;;;;5052581;28;20129;-34
2023/08/29 11:19:54;;;;;;;1.23;0.90;;;21.80;82.90;;;;;;5052594;28;20106;-32
2023/08/29 11:22:22;;;;;;;1.15;0.88;;;21.50;65.60;;;;;;5051812;28;20139;-33
2023/08/29 11:24:54;;;;;;;1.27;0.70;;;21.00;65.40;;;;;;5052406;28;20060;-33
2023/08/29 11:27:21;;;;;;;0.68;0.68;;;20.00;82.20;;;;;;5052051;28;20726;-31
2023/08/29 11:29:48;;;;;;;1.08;0.85;;;21.10;82.90;;;;;;5054675;28;20124;-31
2023/08/29 11:32:15;;;;;;;0.60;0.60;;;20.80;82.80;;;;;;5051862;28;20615;-30
2023/08/29 11:34:42;;;;;;;0.63;0.63;;;20.20;82.50;;;;;;5052123;28;20582;-30
2023/08/29 11:37:09;;;;;;;0.90;0.70;;;21.20;83.10;;;;;;5062567;28;20536;-30
2023/08/29 11:39:36;;;;;;;1.02;0.60;;;21.20;83.00;;;;;;5071858;28;20509;-31
2023/08/29 11:42:05;;;;;;;1.50;0.70;;;;;;;;;;5072156;28;20052;-31
2023/08/29 11:44:33;;;;;;;0.70;0.70;;;20.80;82.50;;;;;;5071310;28;20052;-30
2023/08/29 11:47:00;;;;;;;0.80;0.60;;;20.80;65.70;;;;;;5072247;28;20405;-34
2023/08/29 11:49:27;;;;;;;0.77;0.77;;;22.00;83.20;;;;;;5072200;28;20049;-30
2023/08/29 11:51:54;;;;;;;0.77;0.70;;;;;;;;;;5071752;28;20463;-35
2023/08/29 11:54:41;;;;;;;0.65;0.65;;;21.00;80.80;;;;;;5071496;28;20110;-30
2023/08/29 11:57:10;;;;;;;0.82;0.82;;;21.40;82.60;;;;;;5071724;28;20494;-30
2023/08/29 11:59:39;;;;;;;0.70;0.60;;;21.10;65.20;;;;;;5071921;28;20056;-30
2023/08/29 12:02:06;;;;;;;1.25;0.63;;;21.00;82.40;;;;;;5056205;28;20131;-30
2023/08/29 12:04:32;;;;;;;0.82;0.70;;;21.10;78.50;;;;;;5051493;28;20151;-30
2023/08/29 12:07:07;;;;;;;0.57;0.57;;;21.20;82.30;;;;;;5052031;28;20141;-30
2023/08/29 12:09:34;;;;;;;1.00;0.90;;;;;;;;;;5051835;28;20493;-35
2023/08/29 12:12:02;;;;;;;0.73;0.73;;;;;;;;;;5051784;28;20049;-39
2023/08/29 12:14:30;;;;;;;0.98;0.80;;;23.70;66.30;;;;;;5051698;28;20053;-33
2023/08/29 12:16:57;;;;;;;0.93;0.80;;;21.30;68.40;;;;;;5053104;28;20040;-33
2023/08/29 12:19:24;;;;;;;0.73;0.70;;;;;;;;;;5051458;28;20099;-32
2023/08/29 12:21:54;;;;;;;0.90;0.80;;;20.40;74.80;;;;;;5051713;28;20127;-31
2023/08/29 12:24:21;;;;;;;0.60;0.60;;;;;;;;;;5051819;28;20052;-33
2023/08/29 12:26:48;;;;;;;0.80;0.75;;;20.70;81.50;;;;;;5055774;28;20133;-30
2023/08/29 12:29:15;;;;;;;0.68;0.68;;;21.50;82.50;;;;;;5055677;28;20136;-31
2023/08/29 12:31:43;;;;;;;0.85;0.63;;;21.20;81.80;;;;;;5055465;28;20045;-30
2023/08/29 12:34:10;;;;;;;0.80;0.80;;;21.10;81.60;;;;;;5060268;28;20128;-30
2023/08/29 12:36:36;;;;;;;0.65;0.65;;;20.70;81.50;;;;;;5066689;28;20127;-30
2023/08/29 12:39:03;;;;;;;0.60;0.60;;;;;;;;;;5075526;28;20139;-33
2023/08/29 12:41:31;;;;;;;0.70;0.70;;;;;;;;;;5075183;28;20053;-30
2023/08/29 12:43:59;;;;;;;1.38;0.93;;;21.20;67.20;;;;;;5074898;28;20079;-33
2023/08/29 12:46:25;;;;;;;0.70;0.70;;;21.00;67.70;;;;;;5074912;28;20129;-32
2023/08/29 12:48:53;;;;;;;1.20;0.98;;;21.20;82.10;;;;;;5075647;28;20127;-31
2023/08/29 12:51:20;;;;;;;0.90;0.70;;;;;;;;;;5056977;28;20132;-31
2023/08/29 12:53:48;;;;;;;0.80;0.70;;;22.20;82.70;;;;;;5055018;28;20144;-30
2023/08/29 12:56:14;;;;;;;0.85;0.80;;;22.40;82.50;;;;;;5055139;28;20095;-31
2023/08/29 12:58:41;;;;;;;0.77;0.70;;;;;;;;;;5054674;28;20136;-29
2023/08/29 13:01:09;;;;;;;1.00;0.80;;;21.70;75.20;;;;;;5055157;28;20098;-31
2023/08/29 13:03:36;;;;;;;0.80;0.80;;;22.00;75.50;;;;;;5054796;28;20049;-31
2023/08/29 13:06:04;;;;;;;0.70;0.70;;;21.60;82.20;;;;;;5055756;28;20502;-31
2023/08/29 13:08:31;;;;;;;0.70;0.70;;;;;;;;;;5054985;28;20143;-31
2023/08/29 13:10:58;;;;;;;0.70;0.70;;;;;;;;;;5054811;28;20131;-33
2023/08/29 13:13:26;;;;;;;0.60;0.60;;;21.80;82.80;;;;;;5054292;28;20135;-31
2023/08/29 13:15:53;;;;;;;0.65;0.57;;;21.40;82.70;;;;;;5055000;28;20059;-31
2023/08/29 13:18:21;;;;;;;0.68;0.68;;;21.60;82.60;;;;;;5054881;28;20120;-30
2023/08/29 13:20:48;;;;;;;0.75;0.68;;;21.70;82.80;;;;;;5054777;28;20131;-30